createdAt,value
2019-02-19T00:01:30.101Z,216.55
2019-02-19T00:03:58.600Z,223.53
2019-02-19T00:06:26.934Z,208.28
2019-02-19T00:08:55.108Z,225.62
2019-02-19T00:11:23.345Z,204.68
2019-02-19T00:13:51.605Z,209.15
2019-02-19T00:16:19.828Z,204.03
2019-02-19T00:18:48.151Z,202.13
2019-02-19T00:21:16.382Z,211.75
2019-02-19T00:23:44.676Z,223.90
2019-02-19T00:26:17.261Z,225.03
2019-02-19T00:28:45.601Z,228.75
2019-02-19T00:31:13.838Z,219.95
2019-02-19T00:33:42.016Z,209.32
2019-02-19T00:36:10.367Z,214.10
2019-02-19T00:38:38.613Z,219.25
2019-02-19T00:41:06.861Z,206.72
2019-02-19T00:43:35.068Z,232.77
2019-02-19T00:46:03.278Z,227.07
2019-02-19T00:48:31.638Z,217.90
2019-02-19T00:50:59.842Z,219.40
2019-02-19T00:53:28.119Z,232.27
2019-02-19T00:55:56.327Z,220.00
2019-02-19T00:58:24.679Z,238.20
2019-02-19T01:00:53.166Z,219.53
2019-02-19T01:03:21.336Z,221.82
2019-02-19T01:05:50.508Z,230.00
2019-02-19T01:08:18.740Z,234.72
2019-02-19T01:10:46.929Z,238.00
2019-02-19T01:13:15.127Z,235.82
2019-02-19T01:15:43.418Z,221.20
2019-02-19T01:18:11.601Z,240.72
2019-02-19T01:20:39.840Z,241.97
2019-02-19T01:23:08.260Z,229.97
2019-02-19T01:25:36.476Z,242.30
2019-02-19T01:28:04.715Z,233.85
2019-02-19T01:30:32.956Z,230.30
2019-02-19T01:33:02.471Z,229.90
2019-02-19T01:35:30.770Z,222.33
2019-02-19T01:37:59.049Z,236.03
2019-02-19T01:40:27.248Z,232.43
2019-02-19T01:42:55.434Z,212.25
2019-02-19T01:45:23.628Z,233.15
2019-02-19T01:47:52.129Z,210.88
2019-02-19T01:50:20.755Z,228.22
2019-02-19T01:52:49.451Z,240.80
2019-02-19T01:55:17.836Z,214.55
2019-02-19T01:57:46.370Z,232.27
2019-02-19T02:00:15.003Z,245.12
2019-02-19T02:02:43.348Z,239.00
2019-02-19T02:05:11.714Z,231.80
2019-02-19T02:07:40.394Z,227.25
2019-02-19T02:10:08.743Z,237.12
2019-02-19T02:12:37.149Z,231.82
2019-02-19T02:15:05.900Z,233.20
2019-02-19T02:17:34.619Z,219.68
2019-02-19T02:20:02.903Z,227.47
2019-02-19T02:22:31.182Z,240.68
2019-02-19T02:24:59.366Z,248.05
2019-02-19T02:27:27.620Z,240.60
2019-02-19T02:29:56.065Z,225.05
2019-02-19T02:32:24.859Z,242.70
2019-02-19T02:34:53.183Z,247.22
2019-02-19T02:37:21.508Z,242.07
2019-02-19T02:39:50.188Z,245.88
2019-02-19T02:42:18.469Z,233.57
2019-02-19T02:44:46.710Z,230.12
2019-02-19T02:47:15.342Z,232.80
2019-02-19T02:49:43.757Z,237.75
2019-02-19T02:52:11.971Z,236.45
2019-02-19T02:54:40.530Z,236.37
2019-02-19T02:57:09.262Z,235.88
2019-02-19T02:59:37.679Z,233.40
2019-02-19T03:02:05.906Z,215.72
2019-02-19T03:04:34.172Z,242.45
2019-02-19T03:07:31.168Z,244.70
2019-02-19T03:09:59.447Z,243.40
2019-02-19T03:12:27.657Z,243.22
2019-02-19T03:14:55.887Z,237.57
2019-02-19T03:17:24.147Z,251.88
2019-02-19T03:19:52.340Z,255.47
2019-02-19T03:22:20.895Z,244.80
2019-02-19T03:24:49.216Z,248.95
2019-02-19T03:27:17.657Z,246.77
2019-02-19T03:29:45.840Z,238.62
2019-02-19T03:32:14.007Z,244.00
2019-02-19T03:34:42.257Z,242.22
2019-02-19T03:37:10.560Z,245.45
2019-02-19T03:39:39.585Z,248.70
2019-02-19T03:42:09.877Z,251.80
2019-02-19T03:44:38.122Z,251.32
2019-02-19T03:47:06.286Z,247.02
2019-02-19T03:49:34.571Z,253.07
2019-02-19T03:52:02.872Z,240.52
2019-02-19T03:54:31.071Z,242.75
2019-02-19T03:56:59.364Z,244.20
2019-02-19T03:59:27.598Z,257.10
2019-02-19T04:01:55.773Z,239.72
2019-02-19T04:04:24.096Z,255.72
2019-02-19T04:06:52.759Z,240.37
2019-02-19T04:09:21.026Z,250.38
2019-02-19T04:11:49.395Z,254.15
2019-02-19T04:14:17.621Z,236.28
2019-02-19T04:16:45.856Z,253.07
2019-02-19T04:19:14.030Z,238.55
2019-02-19T04:21:42.655Z,260.70
2019-02-19T04:24:10.893Z,244.85
2019-02-19T04:26:39.243Z,262.48
2019-02-19T04:29:07.523Z,257.55
2019-02-19T04:31:35.699Z,262.32
2019-02-19T04:34:03.975Z,251.70
2019-02-19T04:36:32.260Z,243.25
2019-02-19T04:39:02.180Z,255.43
2019-02-19T04:41:30.581Z,200.38
2019-02-19T04:43:58.885Z,254.68
2019-02-19T04:46:31.590Z,243.37
2019-02-19T04:48:57.589Z,261.20
2019-02-19T04:51:25.923Z,241.40
2019-02-19T04:53:54.186Z,243.90
2019-02-19T04:56:24.055Z,258.70
2019-02-19T04:58:52.908Z,252.40
2019-02-19T05:01:21.179Z,263.82
2019-02-19T05:03:49.396Z,264.05
2019-02-19T05:06:17.609Z,272.27
2019-02-19T05:08:45.850Z,268.17
2019-02-19T05:11:14.069Z,259.10
2019-02-19T05:13:42.267Z,259.48
2019-02-19T05:16:10.435Z,265.62
2019-02-19T05:18:38.641Z,265.98
2019-02-19T05:21:07.294Z,261.35
2019-02-19T05:23:35.814Z,267.35
2019-02-19T05:26:04.537Z,258.27
2019-02-19T05:28:33.211Z,269.87
2019-02-19T05:31:01.354Z,265.52
2019-02-19T05:33:29.522Z,254.95
2019-02-19T05:35:57.735Z,253.90
2019-02-19T05:38:25.952Z,238.22
2019-02-19T05:40:54.414Z,266.30
2019-02-19T05:43:22.599Z,272.50
2019-02-19T05:45:51.215Z,255.57
2019-02-19T05:48:20.034Z,259.45
2019-02-19T05:50:48.933Z,259.25
2019-02-19T05:53:17.751Z,272.25
2019-02-19T05:55:45.944Z,272.40
2019-02-19T05:58:14.595Z,258.90
2019-02-19T06:00:43.153Z,261.70
2019-02-19T06:03:17.173Z,283.40
2019-02-19T06:05:45.412Z,279.63
2019-02-19T06:08:13.673Z,295.50
2019-02-19T06:10:41.950Z,282.10
2019-02-19T06:13:10.182Z,308.13
2019-02-19T06:15:38.535Z,291.05
2019-02-19T06:18:06.966Z,275.43
2019-02-19T06:20:35.632Z,278.75
2019-02-19T06:23:04.216Z,267.90
2019-02-19T06:25:32.619Z,262.90
2019-02-19T06:28:01.362Z,257.02
2019-02-19T06:30:29.541Z,269.40
2019-02-19T06:32:57.929Z,276.32
2019-02-19T06:35:26.197Z,265.30
2019-02-19T06:37:54.527Z,256.25
2019-02-19T06:40:28.114Z,276.98
2019-02-19T06:42:56.590Z,274.92
2019-02-19T06:45:25.028Z,258.45
2019-02-19T06:47:53.678Z,255.85
2019-02-19T06:50:22.392Z,221.72
2019-02-19T06:52:50.735Z,214.17
2019-02-19T06:55:18.874Z,207.98
2019-02-19T06:57:47.116Z,198.72
2019-02-19T07:00:15.851Z,191.55
2019-02-19T07:03:12.827Z,196.28
2019-02-19T07:05:41.391Z,210.00
2019-02-19T07:08:09.737Z,191.65
2019-02-19T07:10:37.881Z,200.90
2019-02-19T07:13:06.288Z,203.98
2019-02-19T07:15:35.008Z,208.95
2019-02-19T07:18:03.284Z,185.82
2019-02-19T07:20:31.482Z,183.72
2019-02-19T07:22:59.717Z,190.73
2019-02-19T07:25:27.911Z,177.75
2019-02-19T07:27:56.302Z,174.75
2019-02-19T07:30:24.466Z,165.77
2019-02-19T07:32:52.690Z,166.25
2019-02-19T07:35:20.914Z,138.32
2019-02-19T07:37:49.143Z,138.70
2019-02-19T07:40:17.578Z,150.32
2019-02-19T07:42:46.271Z,125.27
2019-02-19T07:45:14.486Z,127.45
2019-02-19T07:47:42.763Z,115.80
2019-02-19T07:50:10.967Z,113.37
2019-02-19T07:52:39.223Z,109.15
2019-02-19T07:55:07.875Z,103.87
2019-02-19T07:57:36.057Z,110.40
2019-02-19T08:00:04.703Z,95.70
2019-02-19T08:02:32.966Z,94.50
2019-02-19T08:05:01.639Z,87.85
2019-02-19T08:07:29.874Z,92.50
2019-02-19T08:09:58.117Z,81.25
2019-02-19T08:12:26.394Z,82.25
2019-02-19T08:14:54.566Z,77.58
2019-02-19T08:17:22.709Z,74.82
2019-02-19T08:19:50.969Z,80.92
2019-02-19T08:22:19.273Z,69.58
2019-02-19T08:24:47.463Z,73.90
2019-02-19T08:27:15.716Z,68.62
2019-02-19T08:29:44.299Z,72.17
2019-02-19T08:32:13.506Z,67.50
2019-02-19T08:34:42.091Z,68.65
2019-02-19T08:37:10.350Z,68.97
2019-02-19T08:39:38.697Z,64.22
2019-02-19T08:42:06.916Z,77.85
2019-02-19T08:44:35.729Z,62.67
2019-02-19T08:47:03.986Z,69.97
2019-02-19T08:49:32.274Z,64.70
2019-02-19T08:52:02.077Z,64.58
2019-02-19T08:54:30.288Z,57.27
2019-02-19T08:56:58.523Z,51.75
2019-02-19T08:59:26.812Z,59.35
2019-02-19T09:01:55.096Z,59.73
2019-02-19T09:04:23.312Z,59.88
2019-02-19T09:06:51.718Z,60.17
2019-02-19T09:09:19.998Z,60.15
2019-02-19T09:11:48.161Z,51.13
2019-02-19T09:14:16.564Z,52.00
2019-02-19T09:16:44.990Z,49.30
2019-02-19T09:19:13.345Z,54.33
2019-02-19T09:21:41.551Z,54.40
2019-02-19T09:24:09.927Z,54.85
2019-02-19T09:26:38.080Z,52.65
2019-02-19T09:29:06.383Z,48.35
2019-02-19T09:31:34.587Z,50.03
2019-02-19T09:34:04.303Z,50.90
2019-02-19T09:36:32.639Z,44.50
2019-02-19T09:39:01.142Z,48.30
2019-02-19T09:41:29.831Z,48.52
2019-02-19T09:43:58.225Z,47.62
2019-02-19T09:46:26.488Z,49.95
2019-02-19T09:48:54.725Z,45.15
2019-02-19T09:51:23.115Z,52.90
2019-02-19T09:53:51.533Z,50.30
2019-02-19T09:56:20.249Z,45.92
2019-02-19T09:58:48.679Z,39.60
2019-02-19T10:01:16.969Z,41.58
2019-02-19T10:03:45.283Z,48.38
2019-02-19T10:06:13.656Z,45.30
2019-02-19T10:08:41.966Z,40.92
2019-02-19T10:11:10.405Z,42.88
2019-02-19T10:13:41.705Z,37.83
2019-02-19T10:16:09.955Z,45.55
2019-02-19T10:18:38.833Z,44.23
2019-02-19T10:21:07.602Z,41.92
2019-02-19T10:23:36.352Z,37.78
2019-02-19T10:26:04.700Z,35.70
2019-02-19T10:28:32.979Z,32.63
2019-02-19T10:31:01.349Z,36.53
2019-02-19T10:33:29.899Z,32.00
2019-02-19T10:35:58.188Z,43.95
2019-02-19T10:38:26.544Z,35.58
2019-02-19T10:40:57.775Z,33.23
2019-02-19T10:43:26.165Z,35.20
2019-02-19T10:45:54.399Z,43.75
2019-02-19T10:48:23.458Z,30.52
2019-02-19T10:50:51.801Z,39.13
2019-02-19T10:53:20.383Z,38.05
2019-02-19T10:55:48.693Z,36.95
2019-02-19T10:58:23.042Z,34.88
2019-02-19T11:00:47.471Z,31.82
2019-02-19T11:03:15.911Z,32.60
2019-02-19T11:05:44.229Z,34.98
2019-02-19T11:08:12.559Z,33.20
2019-02-19T11:10:40.828Z,36.28
2019-02-19T11:13:09.540Z,32.88
2019-02-19T11:15:37.997Z,46.65
2019-02-19T11:18:06.333Z,32.67
2019-02-19T11:20:37.163Z,36.35
2019-02-19T11:23:05.718Z,36.42
2019-02-19T11:25:34.065Z,37.15
2019-02-19T11:28:02.397Z,35.17
2019-02-19T11:30:30.822Z,36.42
2019-02-19T11:32:59.244Z,41.65
2019-02-19T11:35:27.631Z,34.38
2019-02-19T11:37:56.094Z,33.28
2019-02-19T11:40:24.689Z,38.50
2019-02-19T11:42:53.531Z,37.50
2019-02-19T11:45:22.366Z,34.48
2019-02-19T11:47:50.708Z,40.67
2019-02-19T11:50:19.436Z,49.08
2019-02-19T11:52:47.707Z,41.30
2019-02-19T11:55:16.394Z,35.43
2019-02-19T11:57:44.667Z,45.50
2019-02-19T12:00:16.546Z,34.18
2019-02-19T12:02:44.804Z,32.85
2019-02-19T12:05:13.196Z,36.53
2019-02-19T12:07:41.552Z,34.05
2019-02-19T12:10:11.949Z,41.37
2019-02-19T12:15:08.596Z,42.90
2019-02-19T12:17:36.966Z,35.17
2019-02-19T12:20:05.394Z,34.98
2019-02-19T12:22:33.857Z,35.28
2019-02-19T12:25:02.459Z,39.27
2019-02-19T12:27:31.009Z,43.73
2019-02-19T12:29:59.315Z,35.17
2019-02-19T12:32:27.694Z,36.88
2019-02-19T12:34:56.017Z,32.17
2019-02-19T12:37:24.280Z,39.00
2019-02-19T12:39:52.729Z,33.58
2019-02-19T12:42:24.113Z,36.30
2019-02-19T12:44:52.520Z,32.65
2019-02-19T12:47:20.769Z,41.30
2019-02-19T12:49:49.131Z,43.35
2019-02-19T12:52:17.353Z,40.60
2019-02-19T12:54:48.076Z,42.25
2019-02-19T12:57:16.478Z,35.25
2019-02-19T12:59:45.004Z,35.75
2019-02-19T13:02:13.288Z,39.42
2019-02-19T13:04:41.676Z,41.02
2019-02-19T13:07:10.096Z,33.28
2019-02-19T13:09:38.486Z,41.30
2019-02-19T13:12:06.981Z,34.80
2019-02-19T13:14:35.886Z,39.90
2019-02-19T13:17:04.279Z,38.78
2019-02-19T13:19:32.607Z,39.90
2019-02-19T13:22:03.420Z,36.45
2019-02-19T13:24:32.493Z,43.52
2019-02-19T13:27:01.411Z,38.78
2019-02-19T13:29:29.962Z,35.08
2019-02-19T13:31:58.390Z,42.90
2019-02-19T13:34:27.117Z,38.78
2019-02-19T13:36:55.408Z,41.75
2019-02-19T13:39:23.772Z,34.90
2019-02-19T13:41:52.044Z,45.92
2019-02-19T13:44:20.418Z,42.78
2019-02-19T13:46:48.711Z,39.23
2019-02-19T13:49:16.984Z,32.17
2019-02-19T13:51:45.301Z,29.65
2019-02-19T13:54:51.193Z,31.68
2019-02-19T13:57:19.517Z,34.50
2019-02-19T13:59:47.796Z,35.38
2019-02-19T14:02:16.253Z,31.97
2019-02-19T14:04:44.646Z,31.12
2019-02-19T14:07:12.904Z,31.25
2019-02-19T14:09:41.313Z,33.58
2019-02-19T14:12:09.825Z,35.43
2019-02-19T14:14:45.874Z,34.80
2019-02-19T14:17:16.679Z,34.15
2019-02-19T14:19:52.329Z,37.50
2019-02-19T14:22:38.968Z,37.95
2019-02-19T14:25:26.028Z,37.63
2019-02-19T14:28:23.146Z,39.67
2019-02-19T14:31:09.879Z,33.90
2019-02-19T14:34:03.717Z,34.65
2019-02-19T14:36:42.895Z,37.00
2019-02-19T14:39:42.709Z,33.45
2019-02-19T14:42:48.504Z,41.55
2019-02-19T14:45:36.419Z,41.50
2019-02-19T14:48:33.267Z,39.95
2019-02-19T14:51:22.503Z,45.78
2019-02-19T14:54:21.676Z,39.80
2019-02-19T14:57:12.815Z,47.27
2019-02-19T14:59:59.183Z,39.33
2019-02-19T15:02:47.500Z,42.93
2019-02-19T15:05:50.678Z,42.73
2019-02-19T15:08:41.368Z,42.55
2019-02-19T15:14:17.122Z,49.67
2019-02-19T15:17:10.812Z,49.90
2019-02-19T15:20:00.959Z,44.65
2019-02-19T15:22:57.592Z,41.92
2019-02-19T15:25:56.600Z,44.40
2019-02-19T15:28:43.230Z,45.28
2019-02-19T15:31:29.634Z,46.68
2019-02-19T15:34:15.971Z,49.98
2019-02-19T15:37:22.032Z,52.67
2019-02-19T15:40:08.123Z,49.20
2019-02-19T15:43:10.935Z,51.98
2019-02-19T15:46:08.523Z,55.65
2019-02-19T15:48:58.249Z,54.48
2019-02-19T15:51:54.869Z,52.30
2019-02-19T15:54:51.962Z,49.80
2019-02-19T15:57:42.389Z,53.50
2019-02-19T16:00:33.133Z,59.58
2019-02-19T16:03:09.802Z,56.68
2019-02-19T16:06:03.600Z,55.73
2019-02-19T16:08:41.091Z,59.98
2019-02-19T16:11:28.447Z,60.03
2019-02-19T16:14:22.567Z,66.35
2019-02-19T16:17:25.761Z,52.67
2019-02-19T16:20:13.712Z,54.20
2019-02-19T16:23:00.407Z,56.18
2019-02-19T16:25:40.213Z,61.28
2019-02-19T16:28:34.100Z,55.88
2019-02-19T16:31:30.772Z,58.35
2019-02-19T16:34:28.069Z,60.43
2019-02-19T16:37:18.661Z,66.25
2019-02-19T16:40:09.030Z,63.85
2019-02-19T16:42:57.735Z,70.57
2019-02-19T16:45:35.383Z,61.50
2019-02-19T16:48:22.417Z,63.58
2019-02-19T16:50:59.794Z,57.03
2019-02-19T16:53:46.037Z,63.30
2019-02-19T16:56:42.365Z,62.73
2019-02-19T16:59:33.177Z,62.85
2019-02-19T17:02:32.684Z,69.27
2019-02-19T17:05:23.586Z,70.92
2019-02-19T17:11:25.949Z,62.58
2019-02-19T17:14:12.203Z,67.62
2019-02-19T17:17:15.190Z,70.30
2019-02-19T17:19:56.452Z,69.55
2019-02-19T17:22:35.611Z,77.90
2019-02-19T17:25:16.619Z,78.15
2019-02-19T17:27:51.603Z,82.50
2019-02-19T17:30:38.523Z,82.27
2019-02-19T17:33:34.425Z,81.95
2019-02-19T17:36:25.458Z,70.17
2019-02-19T17:39:16.626Z,66.80
2019-02-19T17:42:04.677Z,63.75
2019-02-19T17:44:51.429Z,67.85
2019-02-19T17:47:42.583Z,67.55
2019-02-19T17:50:37.951Z,68.62
2019-02-19T17:53:18.927Z,69.87
2019-02-19T17:56:04.077Z,66.30
2019-02-19T17:58:57.851Z,58.95
2019-02-19T18:01:48.730Z,59.75
2019-02-19T18:07:35.200Z,70.78
2019-02-19T18:10:23.375Z,58.35
2019-02-19T18:13:10.728Z,65.95
2019-02-19T18:15:54.698Z,61.75
2019-02-19T18:18:41.211Z,56.58
2019-02-19T18:21:09.812Z,57.53
2019-02-19T18:23:38.769Z,59.70
2019-02-19T18:26:07.677Z,62.13
2019-02-19T18:28:36.213Z,63.50
2019-02-19T18:31:04.719Z,62.38
2019-02-19T18:33:33.084Z,59.77
2019-02-19T18:36:01.674Z,64.67
2019-02-19T18:38:31.666Z,63.55
2019-02-19T18:41:00.830Z,64.50
2019-02-19T18:43:29.182Z,74.12
2019-02-19T18:45:57.659Z,61.48
2019-02-19T18:48:26.092Z,61.23
2019-02-19T18:50:58.467Z,63.35
2019-02-19T18:53:24.903Z,75.03
2019-02-19T18:55:53.551Z,68.87
2019-02-19T18:58:21.883Z,70.28
2019-02-19T19:00:50.285Z,68.72
2019-02-19T19:03:18.492Z,66.25
2019-02-19T19:05:47.175Z,68.10
2019-02-19T19:08:15.527Z,78.02
2019-02-19T19:10:46.921Z,85.92
2019-02-19T19:13:15.522Z,81.53
2019-02-19T19:15:45.541Z,78.07
2019-02-19T19:18:14.222Z,78.47
2019-02-19T19:20:42.809Z,79.55
2019-02-19T19:23:11.734Z,78.90
2019-02-19T19:25:40.418Z,83.78
2019-02-19T19:28:08.826Z,83.65
2019-02-19T19:30:36.981Z,87.90
2019-02-19T19:33:06.084Z,81.12
2019-02-19T19:35:34.380Z,84.00
2019-02-19T19:38:02.575Z,78.37
2019-02-19T19:40:30.884Z,74.80
2019-02-19T19:42:59.161Z,72.45
2019-02-19T19:45:27.438Z,72.95
2019-02-19T19:47:55.660Z,79.10
2019-02-19T19:50:23.977Z,77.53
2019-02-19T19:52:52.241Z,80.70
2019-02-19T19:55:20.447Z,84.20
2019-02-19T19:57:48.694Z,80.17
2019-02-19T20:00:17.127Z,80.10
2019-02-19T20:02:45.384Z,75.05
2019-02-19T20:05:13.634Z,84.95
2019-02-19T20:07:41.831Z,75.03
2019-02-19T20:10:10.138Z,77.95
2019-02-19T20:12:38.415Z,73.75
2019-02-19T20:15:07.594Z,67.97
2019-02-19T20:17:35.849Z,79.32
2019-02-19T20:20:05.127Z,65.40
2019-02-19T20:22:33.373Z,70.72
2019-02-19T20:25:02.434Z,61.90
2019-02-19T20:27:30.658Z,60.58
2019-02-19T20:29:58.872Z,66.97
2019-02-19T20:32:27.073Z,54.73
2019-02-19T20:34:55.299Z,63.70
2019-02-19T20:37:23.502Z,59.40
2019-02-19T20:39:51.691Z,61.75
2019-02-19T20:42:19.918Z,58.13
2019-02-19T20:44:48.088Z,61.05
2019-02-19T20:47:16.372Z,62.93
2019-02-19T20:49:44.563Z,56.30
2019-02-19T20:52:12.742Z,60.78
2019-02-19T20:54:40.922Z,54.95
2019-02-19T20:57:09.222Z,62.40
2019-02-19T20:59:37.464Z,54.85
2019-02-19T21:02:05.648Z,57.60
2019-02-19T21:04:33.873Z,57.27
2019-02-19T21:07:02.055Z,55.95
2019-02-19T21:09:30.291Z,55.12
2019-02-19T21:11:58.453Z,59.93
2019-02-19T21:14:26.677Z,53.58
2019-02-19T21:16:54.887Z,55.65
2019-02-19T21:19:23.161Z,52.48
2019-02-19T21:21:51.345Z,54.95
2019-02-19T21:24:19.629Z,57.55
2019-02-19T21:26:47.807Z,65.65
2019-02-19T21:29:15.978Z,54.53
2019-02-19T21:31:44.286Z,55.25
2019-02-19T21:34:12.425Z,51.60
2019-02-19T21:36:40.701Z,54.60
2019-02-19T21:39:08.974Z,52.13
2019-02-19T21:41:37.176Z,55.08
2019-02-19T21:44:05.369Z,62.40
2019-02-19T21:46:34.024Z,58.65
2019-02-19T21:49:02.318Z,64.75
2019-02-19T21:51:30.434Z,61.68
2019-02-19T21:53:58.687Z,57.38
2019-02-19T21:56:26.883Z,67.62
2019-02-19T21:58:55.039Z,60.58
2019-02-19T22:01:23.221Z,63.70
2019-02-19T22:03:51.390Z,60.90
2019-02-19T22:06:19.600Z,66.90
2019-02-19T22:08:47.785Z,65.72
2019-02-19T22:11:16.014Z,67.30
2019-02-19T22:13:44.202Z,66.17
2019-02-19T22:16:12.458Z,64.70
2019-02-19T22:18:40.603Z,59.35
2019-02-19T22:21:23.511Z,66.65
2019-02-19T22:23:51.729Z,66.72
2019-02-19T22:26:19.884Z,61.05
2019-02-19T22:28:48.075Z,72.60
2019-02-19T22:31:16.320Z,59.90
2019-02-19T22:33:44.527Z,64.77
2019-02-19T22:36:12.751Z,69.97
2019-02-19T22:38:40.977Z,74.70
2019-02-19T22:41:09.328Z,64.37
2019-02-19T22:43:37.522Z,72.62
2019-02-19T22:46:05.867Z,74.00
2019-02-19T22:48:34.127Z,79.87
2019-02-19T22:51:02.302Z,69.70
2019-02-19T22:53:56.020Z,75.00
2019-02-19T22:56:27.312Z,70.17
2019-02-19T22:58:55.580Z,74.97
2019-02-19T23:01:32.588Z,73.72
2019-02-19T23:04:02.153Z,70.97
2019-02-19T23:06:30.412Z,72.75
2019-02-19T23:08:58.809Z,76.67
2019-02-19T23:11:26.991Z,76.85
2019-02-19T23:13:55.220Z,74.30
2019-02-19T23:16:23.543Z,67.27
2019-02-19T23:18:51.714Z,71.33
2019-02-19T23:21:19.926Z,70.87
2019-02-19T23:23:48.159Z,60.23
2019-02-19T23:26:16.377Z,60.55
2019-02-19T23:28:44.600Z,59.70
2019-02-19T23:31:12.816Z,69.10
2019-02-19T23:33:41.038Z,62.13
2019-02-19T23:36:37.600Z,63.42
2019-02-19T23:39:06.735Z,62.27
2019-02-19T23:41:34.989Z,54.50
2019-02-19T23:44:03.266Z,59.65
2019-02-19T23:46:31.601Z,58.23
2019-02-19T23:48:59.817Z,54.27
2019-02-19T23:51:28.032Z,54.30
2019-02-19T23:53:56.276Z,59.90
2019-02-19T23:56:24.553Z,52.53
2019-02-19T23:58:52.769Z,58.50
